createdAt,value
2019-04-26T00:04:18.495Z,1.45
2019-04-26T00:09:26.670Z,1.34
2019-04-26T00:14:34.874Z,1.48
2019-04-26T00:19:42.981Z,1.23
2019-04-26T00:24:51.453Z,1.33
2019-04-26T00:29:59.624Z,1.49
2019-04-26T00:35:07.945Z,1.54
2019-04-26T00:40:16.574Z,1.42
2019-04-26T00:45:24.693Z,1.32
2019-04-26T00:50:32.986Z,1.51
2019-04-26T00:55:41.433Z,1.27
2019-04-26T01:00:49.575Z,1.37
2019-04-26T01:06:00.276Z,1.53
2019-04-26T01:11:03.786Z,1.78
2019-04-26T01:16:12.155Z,1.47
2019-04-26T01:21:20.611Z,1.52
2019-04-26T01:26:28.510Z,1.45
2019-04-26T01:31:36.689Z,1.54
2019-04-26T01:36:44.883Z,1.59
2019-04-26T01:41:53.193Z,1.60
2019-04-26T01:47:01.333Z,1.64
2019-04-26T01:52:09.817Z,1.35
2019-04-26T01:57:18.125Z,1.44
2019-04-26T02:02:27.681Z,1.79
2019-04-26T02:07:34.215Z,1.78
2019-04-26T02:12:42.430Z,1.92
2019-04-26T02:17:50.702Z,1.81
2019-04-26T02:22:58.830Z,1.54
2019-04-26T02:28:07.041Z,1.73
2019-04-26T02:33:15.305Z,1.71
2019-04-26T02:38:23.432Z,1.65
2019-04-26T02:43:32.168Z,1.44
2019-04-26T02:48:39.294Z,1.39
2019-04-26T02:53:47.477Z,1.39
2019-04-26T02:58:56.114Z,1.58
2019-04-26T03:04:04.271Z,1.80
2019-04-26T03:09:12.642Z,1.68
2019-04-26T03:14:20.879Z,1.54
2019-04-26T03:19:31.448Z,1.55
2019-04-26T03:24:38.359Z,1.58
2019-04-26T03:29:44.520Z,1.91
2019-04-26T03:34:55.058Z,1.94
2019-04-26T03:40:00.191Z,2.24
2019-04-26T03:45:08.402Z,2.15
2019-04-26T03:50:16.774Z,2.13
2019-04-26T03:55:24.843Z,1.97
2019-04-26T04:00:33.119Z,2.58
2019-04-26T04:05:42.058Z,2.44
2019-04-26T04:10:48.955Z,2.60
2019-04-26T04:15:57.149Z,2.39
2019-04-26T04:21:05.377Z,2.30
2019-04-26T04:26:13.947Z,3.00
2019-04-26T04:31:22.180Z,2.47
2019-04-26T04:36:30.414Z,2.81
2019-04-26T04:41:38.596Z,2.76
2019-04-26T04:46:48.670Z,2.95
2019-04-26T04:51:54.345Z,3.34
2019-04-26T04:57:02.559Z,3.05
2019-04-26T05:02:10.730Z,3.37
2019-04-26T05:07:19.384Z,3.29
2019-04-26T05:12:28.442Z,3.62
2019-04-26T05:17:38.454Z,3.93
2019-04-26T05:22:37.398Z,3.97
2019-04-26T05:27:46.787Z,4.25
2019-04-26T05:32:53.274Z,4.67
2019-04-26T05:38:01.480Z,5.74
2019-04-26T05:43:11.656Z,5.71
2019-04-26T05:48:13.768Z,5.79
2019-04-26T05:53:16.412Z,5.73
2019-04-26T05:58:17.110Z,5.45
2019-04-26T06:03:15.258Z,5.11
2019-04-26T06:08:31.117Z,7.63
2019-04-26T06:13:31.756Z,8.12
2019-04-26T06:18:42.078Z,7.48
2019-04-26T06:23:38.757Z,7.56
2019-04-26T06:28:47.114Z,8.12
2019-04-26T06:33:55.326Z,7.15
2019-04-26T06:39:04.205Z,7.51
2019-04-26T06:44:11.261Z,8.21
2019-04-26T06:49:19.442Z,8.25
2019-04-26T06:54:27.713Z,10.54
2019-04-26T06:59:36.811Z,6.85
2019-04-26T07:04:43.953Z,5.48
2019-04-26T07:09:52.122Z,3.83
2019-04-26T07:15:01.086Z,3.13
2019-04-26T07:20:07.993Z,2.84
2019-04-26T07:25:17.807Z,2.47
2019-04-26T07:35:32.279Z,2.35
2019-04-26T10:04:35.445Z,2.33
2019-04-26T10:09:44.503Z,2.84
2019-04-26T10:14:53.021Z,3.13
2019-04-26T10:20:01.286Z,4.51
2019-04-26T10:25:16.318Z,3.51
2019-04-26T10:30:17.230Z,3.70
2019-04-26T10:35:25.500Z,3.65
2019-04-26T10:40:35.613Z,4.33
2019-04-26T10:45:41.534Z,3.65
2019-04-26T10:50:49.757Z,4.06
2019-04-26T10:55:58.161Z,4.86
2019-04-26T11:01:06.323Z,5.67
2019-04-26T11:06:14.586Z,4.56
2019-04-26T11:11:22.960Z,5.64
2019-04-26T11:16:31.315Z,4.72
2019-04-26T11:21:39.597Z,4.88
2019-04-26T11:26:48.521Z,4.98
2019-04-26T11:31:58.433Z,5.40
2019-04-26T11:37:04.542Z,5.99
2019-04-26T11:42:13.225Z,7.61
2019-04-26T11:47:21.431Z,7.14
2019-04-26T11:52:41.301Z,6.73
2019-04-26T11:57:40.089Z,6.73
2019-04-26T12:02:50.810Z,7.23
2019-04-26T12:07:55.276Z,6.64
2019-04-26T12:13:05.895Z,7.04
2019-04-26T12:18:12.572Z,7.39
2019-04-26T12:23:23.320Z,6.86
2019-04-26T12:28:22.153Z,6.99
2019-04-26T12:33:30.902Z,9.09
2019-04-26T12:38:39.721Z,7.65
2019-04-26T12:43:48.214Z,6.99
2019-04-26T12:48:56.843Z,6.37
2019-04-26T12:54:08.243Z,10.85
2019-04-26T12:59:15.690Z,6.47
2019-04-26T13:04:21.655Z,17.66
2019-04-26T13:09:29.894Z,7.45
2019-04-26T13:14:38.651Z,11.07
2019-04-26T13:19:49.573Z,13.37
2019-04-26T13:24:53.908Z,10.42
2019-04-26T13:30:02.680Z,10.13
2019-04-26T13:35:12.917Z,10.17
2019-04-26T13:40:17.898Z,8.84
2019-04-26T13:45:26.269Z,8.60
2019-04-26T13:50:34.562Z,7.65
2019-04-26T13:55:42.897Z,7.71
2019-04-26T14:00:51.042Z,9.13
2019-04-26T14:05:59.443Z,8.03
2019-04-26T14:11:07.894Z,8.40
2019-04-26T14:16:17.101Z,9.03
2019-04-26T14:21:24.555Z,8.92
2019-04-26T14:26:40.008Z,8.81
2019-04-26T14:31:33.596Z,8.53
2019-04-26T14:36:43.777Z,8.36
2019-04-26T14:41:52.772Z,8.14
2019-04-26T14:46:58.443Z,7.27
2019-04-26T14:52:06.616Z,6.77
2019-04-26T14:57:21.441Z,6.72
2019-04-26T15:02:24.571Z,6.05
2019-04-26T15:07:22.923Z,5.60
2019-04-26T15:12:32.467Z,5.62
2019-04-26T15:17:42.242Z,5.81
2019-04-26T15:22:50.086Z,5.50
2019-04-26T15:27:56.449Z,4.80
2019-04-26T15:33:13.869Z,3.89
2019-04-26T15:38:11.705Z,3.78
2019-04-26T15:43:23.803Z,3.02
2019-04-26T15:48:28.829Z,3.89
2019-04-26T15:53:37.612Z,2.53
2019-04-26T15:58:48.973Z,2.56
2019-04-26T16:03:54.165Z,2.33
2019-04-26T16:09:03.232Z,2.45
2019-04-26T16:14:12.400Z,1.78
2019-04-26T16:19:19.209Z,2.36
2019-04-26T16:24:28.924Z,1.88
2019-04-26T16:29:36.129Z,1.44
2019-04-26T16:34:47.533Z,1.65
2019-04-26T16:39:52.318Z,1.59
2019-04-26T16:45:04.237Z,2.65
2019-04-26T16:50:08.504Z,2.69
2019-04-26T16:55:20.856Z,1.92
2019-04-26T17:00:47.326Z,1.62
2019-04-26T17:05:47.892Z,1.73
2019-04-26T17:10:42.046Z,1.79
2019-04-26T17:15:53.461Z,2.44
2019-04-26T17:20:56.420Z,3.07
2019-04-26T17:26:04.760Z,3.82
2019-04-26T17:31:13.105Z,4.34
2019-04-26T17:36:21.657Z,4.11
2019-04-26T17:41:31.071Z,4.20
2019-04-26T17:46:37.923Z,6.39
2019-04-26T17:51:46.603Z,6.85
2019-04-26T17:56:55.037Z,7.47
2019-04-26T18:02:03.416Z,7.92
2019-04-26T18:07:34.623Z,7.79
2019-04-26T18:12:20.638Z,9.11
2019-04-26T18:17:27.752Z,11.65
2019-04-26T18:22:36.417Z,13.19
2019-04-26T18:27:44.573Z,13.06
2019-04-26T18:32:53.089Z,14.05
2019-04-26T18:38:01.419Z,13.31
2019-04-26T18:43:12.603Z,12.78
2019-04-26T18:48:17.897Z,12.21
2019-04-26T18:53:26.339Z,11.21
2019-04-26T18:58:37.916Z,11.05
2019-04-26T19:03:43.704Z,11.48
2019-04-26T19:08:52.700Z,11.51
2019-04-26T19:13:58.438Z,12.53
2019-04-26T19:19:06.876Z,14.58
2019-04-26T19:24:19.532Z,16.17
2019-04-26T19:29:32.677Z,17.16
2019-04-26T19:34:31.562Z,19.08
2019-04-26T19:39:39.687Z,19.39
2019-04-26T19:45:03.446Z,19.44
2019-04-26T19:49:57.265Z,19.16
2019-04-26T19:55:23.827Z,20.11
2019-04-26T20:00:12.678Z,22.47
2019-04-26T20:05:26.120Z,20.36
2019-04-26T20:10:17.994Z,19.74
2019-04-26T20:20:45.737Z,20.20
2019-04-26T20:25:46.114Z,20.10
2019-04-26T20:30:51.421Z,19.95
2019-04-26T20:35:47.762Z,20.92
2019-04-26T20:40:56.111Z,19.93
2019-04-26T20:46:14.008Z,20.65
2019-04-26T20:51:12.070Z,19.67
2019-04-26T20:56:20.192Z,20.04
2019-04-26T21:01:29.278Z,20.81
2019-04-26T21:06:37.442Z,19.72
2019-04-26T21:11:47.250Z,21.21
2019-04-26T21:16:55.392Z,21.37
2019-04-26T21:22:03.542Z,22.26
2019-04-26T21:27:11.794Z,22.31
2019-04-26T21:32:21.934Z,23.90
2019-04-26T21:37:27.593Z,24.27
2019-04-26T21:42:35.885Z,25.69
2019-04-26T21:47:44.286Z,24.45
2019-04-26T21:52:54.017Z,24.67
2019-04-26T21:58:05.098Z,24.79
2019-04-26T22:03:00.846Z,24.92
2019-04-26T22:08:08.922Z,24.49
2019-04-26T22:13:17.350Z,26.44
2019-04-26T22:18:25.668Z,25.53
2019-04-26T22:23:33.807Z,24.65
2019-04-26T22:28:43.351Z,26.14
2019-04-26T22:33:49.678Z,28.39
2019-04-26T22:39:01.621Z,30.76
2019-04-26T22:44:05.597Z,30.41
2019-04-26T22:49:13.801Z,31.60
2019-04-26T22:54:23.063Z,36.22
2019-04-26T22:59:29.842Z,31.36
2019-04-26T23:04:37.987Z,29.13
2019-04-26T23:14:55.175Z,31.38
2019-04-26T23:20:03.062Z,29.49
2019-04-26T23:25:09.422Z,30.61
2019-04-26T23:30:17.681Z,29.93
2019-04-26T23:35:26.053Z,28.87
2019-04-26T23:40:34.172Z,29.25
2019-04-26T23:50:50.157Z,27.14
2019-04-26T23:55:58.257Z,27.56
